Hamel, Minnesota
Current Conditions -  °F | °C
As of 5:08 AM on Thursday 23 Oct 2014 (Local Time) from KMIC Reporting Station
Overcast Overcast  
Wind Chill: 53°   Ceiling: 1000
Heat Index: 53°   Visibility: 9mi
Dew Point: 50°   Wind: 7mph
Humidity: 89%   Direction: 170°S
Pressure: 29.97"   Gusts: NA
Location:  45.04°N, 93.53°W
Report Text: KMIC 231008Z AUTO 17006KT 9SM OVC010 12/10 A2997 RMK AO2 T01170100
Loading
Personal Weather Stations






























Interactive Weather Map
Tropical Storm Tracking
New forecast layout! Learn more

10-Day Weather Forecast

Advertisements
Track Severe Weather on mobile